Lattingtown, New York
Current Conditions -  °F | °C
As of 3:53 PM on Tuesday 21 Oct 2014 (Local Time) from KFRG Reporting Station
Thunderstorm Thunderstorm  
Wind Chill: 61°   Ceiling: 7000
Heat Index: 61°   Visibility: 8mi
Dew Point: 57°   Wind: 10mph
Humidity: 87%   Direction: 100°E
Pressure: 29.84"   Gusts: NA
Location:  40.8809°N, 73.5895°W
Report Text: KFRG 211953Z 10009KT 8SM VCTS RA OVC070 16/14 A2984 RMK AO2 LTG DSNT S SLP104 P0010 T01610139
Loading
Personal Weather Stations






























Interactive Weather Map
Tropical Storm Tracking
New forecast layout! Learn more

10-Day Weather Forecast

Advertisements
Track Severe Weather on mobile